GIPSM EGPK-EGNH
Flight info
| Callsign | GIPSM |
|---|---|
| Flight time | 1h 5m |
| Altitude | 5500 |
| Route | TRN DCT WL |
| Aircraft | C208/L-SDFGR/C |
Departure
| Time | 2026-04-23 11:41 |
|---|---|
| Airport | Glasgow Prestwick Airport (EGPK) |
Arrival
| Time | 2026-04-23 12:47 |
|---|---|
| Airport | Blackpool Airport (EGNH) |
| Time | Latitude | Longitude | Altitude | Speed | Heading |
|---|---|---|---|---|---|
| 2026-04-23 11:33 | 55.50163 | -4.58224 | 70 ft | 0 kts | 219° |
| 2026-04-23 11:37 | 55.50160 | -4.58228 | 70 ft | 3 kts | 213° |
| 2026-04-23 11:37 | 55.50125 | -4.58187 | 70 ft | 10 kts | 115° |
| 2026-04-23 11:38 | 55.50061 | -4.58136 | 70 ft | 15 kts | 205° |
| 2026-04-23 11:38 | 55.49954 | -4.58215 | 70 ft | 17 kts | 202° |
| 2026-04-23 11:38 | 55.49847 | -4.58307 | 70 ft | 16 kts | 202° |
| 2026-04-23 11:38 | 55.49742 | -4.58387 | 70 ft | 16 kts | 204° |
| 2026-04-23 11:39 | 55.49640 | -4.58462 | 70 ft | 15 kts | 201° |
| 2026-04-23 11:39 | 55.49539 | -4.58543 | 70 ft | 15 kts | 204° |
| 2026-04-23 11:39 | 55.49442 | -4.58615 | 70 ft | 15 kts | 194° |
| 2026-04-23 11:39 | 55.49376 | -4.58500 | 70 ft | 14 kts | 109° |
| 2026-04-23 11:40 | 55.49368 | -4.58367 | 70 ft | 0 kts | 70° |
| 2026-04-23 11:40 | 55.49370 | -4.58359 | 70 ft | 1 kts | 64° |
| 2026-04-23 11:40 | 55.49383 | -4.58332 | 70 ft | 6 kts | 37° |
| 2026-04-23 11:40 | 55.49496 | -4.58230 | 70 ft | 40 kts | 23° |
| 2026-04-23 11:41 | 55.49920 | -4.57914 | 72 ft | 87 kts | 20° |
| 2026-04-23 11:41 | 55.50485 | -4.57515 | 309 ft | 88 kts | 21° |
| 2026-04-23 11:41 | 55.51087 | -4.57103 | 478 ft | 98 kts | 21° |
| 2026-04-23 11:41 | 55.51744 | -4.57061 | 721 ft | 102 kts | 327° |
| 2026-04-23 11:42 | 55.52181 | -4.58190 | 756 ft | 126 kts | 290° |
| 2026-04-23 11:42 | 55.52420 | -4.59801 | 798 ft | 139 kts | 283° |
| 2026-04-23 11:42 | 55.52596 | -4.61444 | 941 ft | 142 kts | 279° |
| 2026-04-23 11:42 | 55.52681 | -4.63206 | 1046 ft | 146 kts | 259° |
| 2026-04-23 11:43 | 55.52121 | -4.64725 | 1039 ft | 153 kts | 211° |
| 2026-04-23 11:43 | 55.51128 | -4.65330 | 1094 ft | 152 kts | 185° |
| 2026-04-23 11:43 | 55.50088 | -4.65526 | 1183 ft | 148 kts | 179° |
| 2026-04-23 11:43 | 55.49061 | -4.65548 | 1141 ft | 147 kts | 176° |
| 2026-04-23 11:44 | 55.48040 | -4.65499 | 1140 ft | 144 kts | 172° |
| 2026-04-23 11:44 | 55.47061 | -4.65309 | 1099 ft | 145 kts | 172° |
| 2026-04-23 11:44 | 55.46026 | -4.65469 | 1014 ft | 151 kts | 193° |
| 2026-04-23 11:44 | 55.45146 | -4.66350 | 1131 ft | 143 kts | 221° |
| 2026-04-23 11:45 | 55.44578 | -4.67779 | 1144 ft | 145 kts | 238° |
| 2026-04-23 11:45 | 55.44048 | -4.69243 | 1257 ft | 137 kts | 233° |
| 2026-04-23 11:45 | 55.43507 | -4.70592 | 1375 ft | 131 kts | 230° |
| 2026-04-23 11:45 | 55.42981 | -4.71839 | 1504 ft | 126 kts | 229° |
| 2026-04-23 11:46 | 55.42446 | -4.73021 | 1654 ft | 119 kts | 224° |
| 2026-04-23 11:46 | 55.41873 | -4.74112 | 1712 ft | 124 kts | 220° |
| 2026-04-23 11:46 | 55.41284 | -4.75079 | 2039 ft | 111 kts | 216° |
| 2026-04-23 11:46 | 55.40688 | -4.76018 | 2188 ft | 117 kts | 213° |
| 2026-04-23 11:47 | 55.40073 | -4.76882 | 2445 ft | 111 kts | 211° |
| 2026-04-23 11:47 | 55.39462 | -4.77747 | 2635 ft | 114 kts | 213° |
| 2026-04-23 11:47 | 55.38835 | -4.78549 | 2875 ft | 109 kts | 199° |
| 2026-04-23 11:47 | 55.38131 | -4.78935 | 3102 ft | 105 kts | 186° |
| 2026-04-23 11:48 | 55.37428 | -4.79162 | 3347 ft | 102 kts | 182° |
| 2026-04-23 11:48 | 55.36715 | -4.79307 | 3537 ft | 104 kts | 181° |
| 2026-04-23 11:48 | 55.36003 | -4.79402 | 3768 ft | 102 kts | 178° |
| 2026-04-23 11:48 | 55.35280 | -4.79464 | 3957 ft | 105 kts | 179° |
| 2026-04-23 11:49 | 55.34554 | -4.79536 | 4174 ft | 104 kts | 179° |
| 2026-04-23 11:49 | 55.33829 | -4.79611 | 4367 ft | 105 kts | 180° |
| 2026-04-23 11:49 | 55.33103 | -4.79689 | 4569 ft | 105 kts | 180° |
| 2026-04-23 11:49 | 55.32375 | -4.79756 | 4764 ft | 105 kts | 178° |
| 2026-04-23 11:50 | 55.31636 | -4.79684 | 4962 ft | 105 kts | 170° |
| 2026-04-23 11:50 | 55.30927 | -4.79535 | 5166 ft | 104 kts | 173° |
| 2026-04-23 11:50 | 55.30208 | -4.79366 | 5336 ft | 104 kts | 167° |
| 2026-04-23 11:50 | 55.29491 | -4.79165 | 5461 ft | 103 kts | 172° |
| 2026-04-23 11:51 | 55.28768 | -4.79069 | 5532 ft | 102 kts | 175° |
| 2026-04-23 11:51 | 55.28031 | -4.79036 | 5492 ft | 112 kts | 178° |
| 2026-04-23 11:51 | 55.27233 | -4.79112 | 5519 ft | 114 kts | 183° |
| 2026-04-23 11:51 | 55.26439 | -4.79289 | 5535 ft | 117 kts | 182° |
| 2026-04-23 11:52 | 55.25630 | -4.79181 | 5543 ft | 118 kts | 166° |
| 2026-04-23 11:52 | 55.24855 | -4.78671 | 5571 ft | 119 kts | 157° |
| 2026-04-23 11:52 | 55.24081 | -4.78103 | 5553 ft | 123 kts | 158° |
| 2026-04-23 11:52 | 55.23270 | -4.77601 | 5558 ft | 124 kts | 163° |
| 2026-04-23 11:53 | 55.22437 | -4.77159 | 5568 ft | 125 kts | 160° |
| 2026-04-23 11:53 | 55.21628 | -4.76591 | 5566 ft | 126 kts | 155° |
| 2026-04-23 11:53 | 55.20848 | -4.75870 | 5531 ft | 129 kts | 152° |
| 2026-04-23 11:53 | 55.20065 | -4.75132 | 5561 ft | 127 kts | 153° |
| 2026-04-23 11:54 | 55.19252 | -4.74421 | 5504 ft | 131 kts | 155° |
| 2026-04-23 11:54 | 55.18412 | -4.73794 | 5495 ft | 131 kts | 158° |
| 2026-04-23 11:54 | 55.17573 | -4.73161 | 5469 ft | 131 kts | 155° |
| 2026-04-23 11:54 | 55.16765 | -4.72457 | 5474 ft | 130 kts | 152° |
| 2026-04-23 11:55 | 55.15992 | -4.71630 | 5457 ft | 130 kts | 146° |
| 2026-04-23 11:55 | 55.15283 | -4.70632 | 5443 ft | 130 kts | 139° |
| 2026-04-23 11:55 | 55.14569 | -4.69679 | 5422 ft | 130 kts | 146° |
| 2026-04-23 11:55 | 55.13819 | -4.68794 | 5427 ft | 129 kts | 147° |
| 2026-04-23 11:56 | 55.13072 | -4.67928 | 5421 ft | 129 kts | 147° |
| 2026-04-23 11:56 | 55.12328 | -4.67050 | 5402 ft | 129 kts | 147° |
| 2026-04-23 11:56 | 55.11581 | -4.66159 | 5396 ft | 129 kts | 146° |
| 2026-04-23 11:56 | 55.10841 | -4.65233 | 5373 ft | 131 kts | 144° |
| 2026-04-23 11:57 | 55.10128 | -4.64245 | 5382 ft | 129 kts | 141° |
| 2026-04-23 11:57 | 55.09468 | -4.63167 | 5359 ft | 131 kts | 135° |
| 2026-04-23 11:57 | 55.08881 | -4.61939 | 5342 ft | 132 kts | 130° |
| 2026-04-23 11:57 | 55.08275 | -4.60751 | 5361 ft | 129 kts | 137° |
| 2026-04-23 11:58 | 55.07592 | -4.59746 | 5355 ft | 129 kts | 145° |
| 2026-04-23 11:58 | 55.06811 | -4.58951 | 5348 ft | 129 kts | 155° |
| 2026-04-23 11:58 | 55.05959 | -4.58477 | 5363 ft | 127 kts | 167° |
| 2026-04-23 11:58 | 55.05097 | -4.58098 | 5362 ft | 127 kts | 163° |
| 2026-04-23 11:59 | 55.04256 | -4.57694 | 5391 ft | 124 kts | 163° |
| 2026-04-23 11:59 | 55.03426 | -4.57287 | 5435 ft | 122 kts | 163° |
| 2026-04-23 11:59 | 55.02614 | -4.56851 | 5441 ft | 123 kts | 160° |
| 2026-04-23 11:59 | 55.01794 | -4.56328 | 5442 ft | 124 kts | 159° |
| 2026-04-23 12:00 | 55.00980 | -4.55795 | 5441 ft | 125 kts | 159° |
| 2026-04-23 12:00 | 55.00176 | -4.55267 | 5443 ft | 125 kts | 159° |
| 2026-04-23 12:00 | 54.99353 | -4.54729 | 5444 ft | 126 kts | 159° |
| 2026-04-23 12:00 | 54.98524 | -4.54188 | 5443 ft | 127 kts | 159° |
| 2026-04-23 12:01 | 54.97694 | -4.53649 | 5445 ft | 127 kts | 159° |
| 2026-04-23 12:01 | 54.96869 | -4.53117 | 5444 ft | 127 kts | 159° |
| 2026-04-23 12:01 | 54.96026 | -4.52577 | 5443 ft | 127 kts | 159° |
| 2026-04-23 12:01 | 54.95195 | -4.52050 | 5442 ft | 127 kts | 159° |
| 2026-04-23 12:02 | 54.94360 | -4.51522 | 5446 ft | 127 kts | 159° |
| 2026-04-23 12:02 | 54.93530 | -4.50992 | 5446 ft | 127 kts | 159° |
| 2026-04-23 12:02 | 54.92690 | -4.50448 | 5450 ft | 127 kts | 159° |
| 2026-04-23 12:02 | 54.91867 | -4.49909 | 5447 ft | 127 kts | 159° |
| 2026-04-23 12:03 | 54.91037 | -4.49361 | 5448 ft | 126 kts | 159° |
| 2026-04-23 12:03 | 54.90204 | -4.48807 | 5447 ft | 126 kts | 159° |
| 2026-04-23 12:03 | 54.89386 | -4.48262 | 5454 ft | 126 kts | 159° |
| 2026-04-23 12:03 | 54.88570 | -4.47720 | 5459 ft | 126 kts | 159° |
| 2026-04-23 12:04 | 54.87738 | -4.47168 | 5455 ft | 127 kts | 159° |
| 2026-04-23 12:04 | 54.86916 | -4.46624 | 5457 ft | 127 kts | 159° |
| 2026-04-23 12:04 | 54.86116 | -4.46095 | 5455 ft | 127 kts | 159° |
| 2026-04-23 12:04 | 54.85283 | -4.45545 | 5453 ft | 127 kts | 159° |
| 2026-04-23 12:05 | 54.84462 | -4.44986 | 5453 ft | 127 kts | 153° |
| 2026-04-23 12:05 | 54.83724 | -4.44128 | 5460 ft | 127 kts | 142° |
| 2026-04-23 12:05 | 54.83080 | -4.43078 | 5457 ft | 128 kts | 138° |
| 2026-04-23 12:05 | 54.82444 | -4.41976 | 5456 ft | 129 kts | 137° |
| 2026-04-23 12:06 | 54.81820 | -4.40884 | 5457 ft | 128 kts | 137° |
| 2026-04-23 12:06 | 54.81190 | -4.39780 | 5455 ft | 129 kts | 137° |
| 2026-04-23 12:06 | 54.79929 | -4.37570 | 5462 ft | 128 kts | 137° |
| 2026-04-23 12:07 | 54.79301 | -4.36470 | 5459 ft | 129 kts | 137° |
| 2026-04-23 12:07 | 54.78670 | -4.35371 | 5459 ft | 129 kts | 137° |
| 2026-04-23 12:07 | 54.78026 | -4.34257 | 5451 ft | 130 kts | 137° |
| 2026-04-23 12:07 | 54.77404 | -4.33194 | 5450 ft | 130 kts | 137° |
| 2026-04-23 12:08 | 54.76765 | -4.32106 | 5448 ft | 130 kts | 138° |
| 2026-04-23 12:08 | 54.76112 | -4.30996 | 5445 ft | 129 kts | 137° |
| 2026-04-23 12:08 | 54.75472 | -4.29906 | 5447 ft | 129 kts | 137° |
| 2026-04-23 12:08 | 54.74835 | -4.28819 | 5443 ft | 129 kts | 137° |
| 2026-04-23 12:09 | 54.74194 | -4.27727 | 5446 ft | 129 kts | 137° |
| 2026-04-23 12:09 | 54.73557 | -4.26640 | 5454 ft | 129 kts | 137° |
| 2026-04-23 12:09 | 54.72924 | -4.25512 | 5458 ft | 130 kts | 133° |
| 2026-04-23 12:09 | 54.72341 | -4.24331 | 5455 ft | 129 kts | 133° |
| 2026-04-23 12:10 | 54.71761 | -4.23144 | 5453 ft | 129 kts | 133° |
| 2026-04-23 12:10 | 54.71172 | -4.21939 | 5445 ft | 129 kts | 133° |
| 2026-04-23 12:10 | 54.70594 | -4.20753 | 5446 ft | 129 kts | 133° |
| 2026-04-23 12:10 | 54.70019 | -4.19572 | 5450 ft | 129 kts | 133° |
| 2026-04-23 12:11 | 54.69438 | -4.18383 | 5443 ft | 130 kts | 133° |
| 2026-04-23 12:11 | 54.68857 | -4.17195 | 5442 ft | 129 kts | 133° |
| 2026-04-23 12:11 | 54.68269 | -4.15992 | 5444 ft | 129 kts | 133° |
| 2026-04-23 12:11 | 54.67691 | -4.14805 | 5445 ft | 129 kts | 133° |
| 2026-04-23 12:12 | 54.67112 | -4.13618 | 5448 ft | 130 kts | 133° |
| 2026-04-23 12:12 | 54.66531 | -4.12430 | 5445 ft | 130 kts | 133° |
| 2026-04-23 12:12 | 54.65942 | -4.11224 | 5444 ft | 129 kts | 133° |
| 2026-04-23 12:12 | 54.65366 | -4.10045 | 5449 ft | 129 kts | 133° |
| 2026-04-23 12:13 | 54.64782 | -4.08852 | 5451 ft | 129 kts | 133° |
| 2026-04-23 12:13 | 54.64203 | -4.07667 | 5450 ft | 130 kts | 133° |
| 2026-04-23 12:13 | 54.63616 | -4.06469 | 5444 ft | 130 kts | 133° |
| 2026-04-23 12:13 | 54.63033 | -4.05278 | 5435 ft | 129 kts | 133° |
| 2026-04-23 12:14 | 54.62461 | -4.04101 | 5441 ft | 129 kts | 133° |
| 2026-04-23 12:14 | 54.61879 | -4.02909 | 5438 ft | 129 kts | 133° |
| 2026-04-23 12:14 | 54.61297 | -4.01716 | 5445 ft | 129 kts | 133° |
| 2026-04-23 12:14 | 54.60715 | -4.00527 | 5446 ft | 129 kts | 133° |
| 2026-04-23 12:15 | 54.60131 | -3.99338 | 5449 ft | 130 kts | 133° |
| 2026-04-23 12:15 | 54.59548 | -3.98151 | 5449 ft | 130 kts | 133° |
| 2026-04-23 12:15 | 54.58969 | -3.96975 | 5452 ft | 130 kts | 133° |
| 2026-04-23 12:15 | 54.58385 | -3.95786 | 5450 ft | 129 kts | 133° |
| 2026-04-23 12:16 | 54.57802 | -3.94600 | 5455 ft | 128 kts | 133° |
| 2026-04-23 12:16 | 54.57222 | -3.93422 | 5460 ft | 129 kts | 133° |
| 2026-04-23 12:16 | 54.56641 | -3.92246 | 5459 ft | 129 kts | 133° |
| 2026-04-23 12:16 | 54.56058 | -3.91067 | 5456 ft | 130 kts | 133° |
| 2026-04-23 12:17 | 54.55468 | -3.89880 | 5452 ft | 130 kts | 133° |
| 2026-04-23 12:17 | 54.54881 | -3.88698 | 5453 ft | 130 kts | 133° |
| 2026-04-23 12:17 | 54.54301 | -3.87523 | 5459 ft | 130 kts | 133° |
| 2026-04-23 12:17 | 54.53714 | -3.86333 | 5454 ft | 130 kts | 133° |
| 2026-04-23 12:18 | 54.53128 | -3.85139 | 5454 ft | 130 kts | 133° |
| 2026-04-23 12:18 | 54.52541 | -3.83947 | 5443 ft | 130 kts | 133° |
| 2026-04-23 12:18 | 54.51960 | -3.82765 | 5444 ft | 129 kts | 133° |
| 2026-04-23 12:18 | 54.51374 | -3.81577 | 5449 ft | 129 kts | 133° |
| 2026-04-23 12:19 | 54.50793 | -3.80397 | 5450 ft | 129 kts | 132° |
| 2026-04-23 12:19 | 54.50212 | -3.79224 | 5455 ft | 130 kts | 132° |
| 2026-04-23 12:19 | 54.49626 | -3.78045 | 5451 ft | 130 kts | 133° |
| 2026-04-23 12:19 | 54.49035 | -3.76863 | 5448 ft | 130 kts | 133° |
| 2026-04-23 12:20 | 54.48442 | -3.75675 | 5449 ft | 129 kts | 133° |
| 2026-04-23 12:20 | 54.47858 | -3.74503 | 5449 ft | 129 kts | 133° |
| 2026-04-23 12:20 | 54.47269 | -3.73320 | 5454 ft | 129 kts | 133° |
| 2026-04-23 12:20 | 54.46684 | -3.72138 | 5451 ft | 130 kts | 133° |
| 2026-04-23 12:21 | 54.46102 | -3.70962 | 5449 ft | 130 kts | 132° |
| 2026-04-23 12:21 | 54.45510 | -3.69769 | 5447 ft | 130 kts | 133° |
| 2026-04-23 12:21 | 54.44923 | -3.68588 | 5448 ft | 130 kts | 133° |
| 2026-04-23 12:21 | 54.44330 | -3.67428 | 5444 ft | 129 kts | 137° |
| 2026-04-23 12:22 | 54.43682 | -3.66363 | 5447 ft | 129 kts | 138° |
| 2026-04-23 12:22 | 54.43027 | -3.65309 | 5446 ft | 129 kts | 139° |
| 2026-04-23 12:22 | 54.42374 | -3.64263 | 5446 ft | 130 kts | 139° |
| 2026-04-23 12:22 | 54.41705 | -3.63200 | 5324 ft | 133 kts | 139° |
| 2026-04-23 12:23 | 54.41019 | -3.62113 | 5186 ft | 134 kts | 139° |
| 2026-04-23 12:23 | 54.40333 | -3.61025 | 5056 ft | 135 kts | 139° |
| 2026-04-23 12:23 | 54.39641 | -3.59932 | 4933 ft | 135 kts | 138° |
| 2026-04-23 12:23 | 54.38950 | -3.58845 | 4817 ft | 134 kts | 138° |
| 2026-04-23 12:24 | 54.38253 | -3.57753 | 4695 ft | 134 kts | 138° |
| 2026-04-23 12:24 | 54.37564 | -3.56676 | 4565 ft | 134 kts | 138° |
| 2026-04-23 12:24 | 54.36878 | -3.55605 | 4438 ft | 134 kts | 139° |
| 2026-04-23 12:24 | 54.36190 | -3.54529 | 4315 ft | 134 kts | 139° |
| 2026-04-23 12:25 | 54.35505 | -3.53463 | 4199 ft | 133 kts | 139° |
| 2026-04-23 12:25 | 54.34817 | -3.52395 | 4081 ft | 133 kts | 138° |
| 2026-04-23 12:25 | 54.34134 | -3.51345 | 3959 ft | 133 kts | 138° |
| 2026-04-23 12:25 | 54.33445 | -3.50293 | 3842 ft | 133 kts | 138° |
| 2026-04-23 12:26 | 54.32755 | -3.49244 | 3732 ft | 132 kts | 138° |
| 2026-04-23 12:26 | 54.32058 | -3.48188 | 3622 ft | 132 kts | 138° |
| 2026-04-23 12:26 | 54.31371 | -3.47150 | 3506 ft | 131 kts | 139° |
| 2026-04-23 12:26 | 54.30687 | -3.46120 | 3391 ft | 131 kts | 138° |
| 2026-04-23 12:27 | 54.30002 | -3.45090 | 3276 ft | 131 kts | 139° |
| 2026-04-23 12:27 | 54.29321 | -3.44067 | 3165 ft | 131 kts | 138° |
| 2026-04-23 12:27 | 54.28603 | -3.43090 | 3049 ft | 131 kts | 143° |
| 2026-04-23 12:27 | 54.27844 | -3.42214 | 2934 ft | 131 kts | 145° |
| 2026-04-23 12:28 | 54.27084 | -3.41371 | 2819 ft | 132 kts | 145° |
| 2026-04-23 12:28 | 54.26310 | -3.40529 | 2713 ft | 132 kts | 145° |
| 2026-04-23 12:28 | 54.25536 | -3.39696 | 2607 ft | 132 kts | 145° |
| 2026-04-23 12:28 | 54.24753 | -3.38860 | 2502 ft | 131 kts | 145° |
| 2026-04-23 12:29 | 54.23982 | -3.38042 | 2392 ft | 131 kts | 145° |
| 2026-04-23 12:29 | 54.23213 | -3.37235 | 2283 ft | 131 kts | 145° |
| 2026-04-23 12:29 | 54.22431 | -3.36424 | 2178 ft | 131 kts | 145° |
| 2026-04-23 12:29 | 54.21651 | -3.35622 | 2073 ft | 131 kts | 145° |
| 2026-04-23 12:30 | 54.20869 | -3.34826 | 1977 ft | 130 kts | 146° |
| 2026-04-23 12:30 | 54.20089 | -3.34045 | 1950 ft | 129 kts | 146° |
| 2026-04-23 12:30 | 54.19341 | -3.33309 | 1947 ft | 127 kts | 146° |
| 2026-04-23 12:30 | 54.18540 | -3.32527 | 1948 ft | 126 kts | 146° |
| 2026-04-23 12:31 | 54.17787 | -3.31791 | 1948 ft | 125 kts | 146° |
| 2026-04-23 12:31 | 54.17022 | -3.31043 | 1948 ft | 125 kts | 146° |
| 2026-04-23 12:31 | 54.16270 | -3.30299 | 1951 ft | 126 kts | 146° |
| 2026-04-23 12:31 | 54.15503 | -3.29538 | 1952 ft | 126 kts | 147° |
| 2026-04-23 12:32 | 54.14731 | -3.28822 | 1951 ft | 126 kts | 148° |
| 2026-04-23 12:32 | 54.13947 | -3.28107 | 1950 ft | 126 kts | 148° |
| 2026-04-23 12:32 | 54.13173 | -3.27405 | 1948 ft | 126 kts | 148° |
| 2026-04-23 12:32 | 54.12402 | -3.26709 | 1949 ft | 125 kts | 148° |
| 2026-04-23 12:33 | 54.11619 | -3.26007 | 1951 ft | 125 kts | 148° |
| 2026-04-23 12:33 | 54.10844 | -3.25316 | 1950 ft | 125 kts | 148° |
| 2026-04-23 12:33 | 54.10065 | -3.24623 | 1951 ft | 125 kts | 148° |
| 2026-04-23 12:33 | 54.09290 | -3.23937 | 1952 ft | 125 kts | 148° |
| 2026-04-23 12:34 | 54.08508 | -3.23245 | 1949 ft | 125 kts | 148° |
| 2026-04-23 12:34 | 54.07724 | -3.22553 | 1946 ft | 125 kts | 148° |
| 2026-04-23 12:34 | 54.06952 | -3.21867 | 1948 ft | 125 kts | 148° |
| 2026-04-23 12:34 | 54.06181 | -3.21175 | 1950 ft | 125 kts | 148° |
| 2026-04-23 12:35 | 54.05397 | -3.20472 | 1946 ft | 126 kts | 148° |
| 2026-04-23 12:35 | 54.04622 | -3.19781 | 1947 ft | 125 kts | 148° |
| 2026-04-23 12:35 | 54.03825 | -3.19146 | 1949 ft | 126 kts | 152° |
| 2026-04-23 12:35 | 54.03026 | -3.18558 | 1951 ft | 126 kts | 152° |
| 2026-04-23 12:36 | 54.02207 | -3.17967 | 1953 ft | 126 kts | 152° |
| 2026-04-23 12:36 | 54.01398 | -3.17386 | 1973 ft | 124 kts | 152° |
| 2026-04-23 12:36 | 54.00597 | -3.16812 | 1974 ft | 125 kts | 152° |
| 2026-04-23 12:36 | 53.99797 | -3.16242 | 1978 ft | 124 kts | 152° |
| 2026-04-23 12:37 | 53.98992 | -3.15665 | 1972 ft | 124 kts | 152° |
| 2026-04-23 12:37 | 53.98194 | -3.15088 | 1973 ft | 124 kts | 152° |
| 2026-04-23 12:37 | 53.97391 | -3.14503 | 1972 ft | 125 kts | 152° |
| 2026-04-23 12:37 | 53.96586 | -3.13913 | 1970 ft | 126 kts | 152° |
| 2026-04-23 12:38 | 53.95776 | -3.13318 | 1972 ft | 126 kts | 152° |
| 2026-04-23 12:38 | 53.94966 | -3.12719 | 1975 ft | 126 kts | 152° |
| 2026-04-23 12:38 | 53.94152 | -3.12116 | 1976 ft | 126 kts | 152° |
| 2026-04-23 12:38 | 53.93342 | -3.11518 | 1978 ft | 126 kts | 152° |
| 2026-04-23 12:39 | 53.92536 | -3.10925 | 1978 ft | 126 kts | 152° |
| 2026-04-23 12:39 | 53.91726 | -3.10335 | 1978 ft | 126 kts | 152° |
| 2026-04-23 12:39 | 53.90896 | -3.09809 | 1979 ft | 127 kts | 158° |
| 2026-04-23 12:39 | 53.90053 | -3.09374 | 1979 ft | 127 kts | 158° |
| 2026-04-23 12:40 | 53.89242 | -3.08967 | 1978 ft | 127 kts | 158° |
| 2026-04-23 12:40 | 53.88392 | -3.08540 | 1979 ft | 127 kts | 158° |
| 2026-04-23 12:40 | 53.87554 | -3.08099 | 1969 ft | 128 kts | 159° |
| 2026-04-23 12:40 | 53.86678 | -3.07739 | 1967 ft | 129 kts | 163° |
| 2026-04-23 12:41 | 53.85783 | -3.07529 | 1965 ft | 130 kts | 168° |
| 2026-04-23 12:41 | 53.84889 | -3.07328 | 1966 ft | 129 kts | 164° |
| 2026-04-23 12:41 | 53.84034 | -3.06914 | 1969 ft | 127 kts | 153° |
| 2026-04-23 12:41 | 53.83226 | -3.06323 | 1967 ft | 126 kts | 152° |
| 2026-04-23 12:42 | 53.82439 | -3.05695 | 1978 ft | 125 kts | 149° |
| 2026-04-23 12:42 | 53.81671 | -3.04989 | 1970 ft | 125 kts | 145° |
| 2026-04-23 12:42 | 53.80945 | -3.04187 | 1981 ft | 123 kts | 140° |
| 2026-04-23 12:42 | 53.80288 | -3.03265 | 1978 ft | 122 kts | 133° |
| 2026-04-23 12:43 | 53.79703 | -3.02212 | 1960 ft | 123 kts | 134° |
| 2026-04-23 12:43 | 53.78952 | -3.01456 | 1725 ft | 130 kts | 155° |
| 2026-04-23 12:43 | 53.78047 | -3.01126 | 1409 ft | 137 kts | 172° |
| 2026-04-23 12:43 | 53.77091 | -3.01248 | 1203 ft | 134 kts | 183° |
| 2026-04-23 12:44 | 53.76190 | -3.01480 | 1078 ft | 127 kts | 188° |
| 2026-04-23 12:44 | 53.75500 | -3.02362 | 962 ft | 132 kts | 242° |
| 2026-04-23 12:44 | 53.75446 | -3.03851 | 885 ft | 126 kts | 283° |
| 2026-04-23 12:44 | 53.75638 | -3.05291 | 854 ft | 128 kts | 276° |
| 2026-04-23 12:45 | 53.75756 | -3.06776 | 899 ft | 123 kts | 279° |
| 2026-04-23 12:45 | 53.75912 | -3.08231 | 940 ft | 118 kts | 281° |
| 2026-04-23 12:45 | 53.76324 | -3.09396 | 828 ft | 121 kts | 335° |
| 2026-04-23 12:45 | 53.77060 | -3.09400 | 557 ft | 103 kts | 48° |
| 2026-04-23 12:46 | 53.77287 | -3.08416 | 433 ft | 83 kts | 82° |
| 2026-04-23 12:46 | 53.77353 | -3.07512 | 299 ft | 71 kts | 88° |
| 2026-04-23 12:46 | 53.77363 | -3.06645 | 232 ft | 79 kts | 92° |
| 2026-04-23 12:46 | 53.77289 | -3.05696 | 253 ft | 82 kts | 93° |
| 2026-04-23 12:47 | 53.77246 | -3.04720 | 131 ft | 83 kts | 94° |
| 2026-04-23 12:47 | 53.77205 | -3.03796 | 40 ft | 69 kts | 94° |
| 2026-04-23 12:47 | 53.77165 | -3.03145 | 40 ft | 34 kts | 92° |
| 2026-04-23 12:47 | 53.77210 | -3.02982 | 39 ft | 13 kts | 352° |
| 2026-04-23 12:48 | 53.77296 | -3.03021 | 40 ft | 11 kts | 351° |
| 2026-04-23 12:48 | 53.77369 | -3.03058 | 39 ft | 10 kts | 343° |
| 2026-04-23 12:48 | 53.77435 | -3.03094 | 40 ft | 9 kts | 341° |
| 2026-04-23 12:48 | 53.77469 | -3.03162 | 40 ft | 8 kts | 251° |
| 2026-04-23 12:49 | 53.77446 | -3.03255 | 40 ft | 8 kts | 246° |
| 2026-04-23 12:49 | 53.77426 | -3.03343 | 40 ft | 7 kts | 249° |
| 2026-04-23 12:49 | 53.77407 | -3.03427 | 39 ft | 7 kts | 249° |
| 2026-04-23 12:49 | 53.77386 | -3.03513 | 39 ft | 8 kts | 250° |
| 2026-04-23 12:50 | 53.77416 | -3.03576 | 40 ft | 8 kts | 6° |
| 2026-04-23 12:50 | 53.77475 | -3.03561 | 39 ft | 8 kts | 7° |
| 2026-04-23 12:50 | 53.77536 | -3.03549 | 40 ft | 10 kts | 6° |
| 2026-04-23 12:50 | 53.77613 | -3.03564 | 40 ft | 11 kts | 346° |
| 2026-04-23 12:51 | 53.77694 | -3.03598 | 40 ft | 12 kts | 341° |
| 2026-04-23 12:51 | 53.77777 | -3.03645 | 40 ft | 12 kts | 331° |
| 2026-04-23 12:51 | 53.77803 | -3.03770 | 39 ft | 13 kts | 243° |
| 2026-04-23 12:51 | 53.77775 | -3.03924 | 40 ft | 14 kts | 251° |
| 2026-04-23 12:52 | 53.77726 | -3.04068 | 39 ft | 14 kts | 221° |
| 2026-04-23 12:52 | 53.77677 | -3.04212 | 39 ft | 14 kts | 268° |
| 2026-04-23 12:52 | 53.77723 | -3.04265 | 39 ft | 7 kts | 355° |
| 2026-04-23 12:52 | 53.77734 | -3.04269 | 40 ft | 0 kts | 347° |